Time,TemperatureF,DewpointF,PressureIn,WindDirection,WindDirectionDegrees,WindSpeedMPH,WindSpeedGustMPH,Humidity,HourlyPrecipIn,Conditions,Clouds,dailyrainin,SoftwareType,DateUTC
2013-03-25 00:00:00,7.8,4.0,30.55,West,273,1.0,2.0,85,0.00,,,0.00,weatherlink.com 1.10,2013-03-25 06:00:00,
2013-03-25 00:15:00,8.1,4.0,30.55,WSW,249,1.0,5.0,83,0.00,,,0.00,weatherlink.com 1.10,2013-03-25 06:15:00,
2013-03-25 00:30:00,8.7,3.0,30.55,WSW,250,4.0,8.0,78,0.00,,,0.00,weatherlink.com 1.10,2013-03-25 06:30:00,
2013-03-25 00:45:00,8.7,3.0,30.55,WSW,249,1.0,12.0,79,0.00,,,0.00,weatherlink.com 1.10,2013-03-25 06:45:00,
2013-03-25 01:00:00,8.5,4.0,30.55,WSW,245,3.0,8.0,81,0.00,,,0.00,weatherlink.com 1.10,2013-03-25 07:00:00,
2013-03-25 01:15:00,8.7,3.0,30.55,West,281,2.0,8.0,79,0.00,,,0.00,weatherlink.com 1.10,2013-03-25 07:15:00,
2013-03-25 01:30:00,8.8,4.0,30.54,West,276,7.0,10.0,80,0.00,,,0.00,weatherlink.com 1.10,2013-03-25 07:30:00,
2013-03-25 01:45:00,8.7,4.0,30.54,SW,236,5.0,6.0,81,0.00,,,0.00,weatherlink.com 1.10,2013-03-25 07:45:00,
2013-03-25 02:00:00,8.8,4.0,30.54,WSW,253,2.0,7.0,80,0.00,,,0.00,weatherlink.com 1.10,2013-03-25 08:00:00,
2013-03-25 02:15:00,8.8,4.0,30.54,WSW,252,1.0,8.0,79,0.00,,,0.00,weatherlink.com 1.10,2013-03-25 08:15:00,
2013-03-25 02:30:00,8.8,4.0,30.53,WSW,243,2.0,7.0,79,0.00,,,0.00,weatherlink.com 1.10,2013-03-25 08:30:00,
2013-03-25 02:45:00,8.9,3.0,30.53,WNW,283,3.0,8.0,77,0.00,,,0.00,weatherlink.com 1.10,2013-03-25 08:45:00,
2013-03-25 03:00:00,9.1,3.0,30.52,West,269,2.0,7.0,75,0.00,,,0.00,weatherlink.com 1.10,2013-03-25 09:00:00,
2013-03-25 03:15:00,9.0,3.0,30.52,SW,224,3.0,6.0,76,0.00,,,0.00,weatherlink.com 1.10,2013-03-25 09:15:00,
2013-03-25 03:30:00,9.2,2.0,30.52,West,274,3.0,12.0,73,0.00,,,0.00,weatherlink.com 1.10,2013-03-25 09:30:00,
2013-03-25 03:45:00,9.0,2.0,30.51,WSW,255,1.0,7.0,73,0.00,,,0.00,weatherlink.com 1.10,2013-03-25 09:45:00,
2013-03-25 04:00:00,9.1,2.0,30.51,West,266,2.0,9.0,72,0.00,,,0.00,weatherlink.com 1.10,2013-03-25 10:00:00,
2013-03-25 04:15:00,9.1,2.0,30.52,WNW,287,4.0,10.0,71,0.00,,,0.00,weatherlink.com 1.10,2013-03-25 10:15:00,
2013-03-25 04:30:00,9.1,2.0,30.52,WSW,256,3.0,10.0,71,0.00,,,0.00,weatherlink.com 1.10,2013-03-25 10:30:00,
2013-03-25 04:45:00,8.9,2.0,30.52,SW,235,11.0,14.0,73,0.00,,,0.00,weatherlink.com 1.10,2013-03-25 10:45:00,
2013-03-25 05:00:00,8.7,2.0,30.52,WSW,240,7.0,13.0,73,0.00,,,0.00,weatherlink.com 1.10,2013-03-25 11:00:00,
2013-03-25 05:15:00,8.6,2.0,30.52,SW,231,2.0,9.0,75,0.00,,,0.00,weatherlink.com 1.10,2013-03-25 11:15:00,
2013-03-25 05:31:00,8.4,3.0,30.52,WNW,302,4.0,7.0,78,0.00,,,0.00,weatherlink.com 1.10,2013-03-25 11:31:00,
2013-03-25 05:46:00,8.2,3.0,30.52,NW,309,1.0,4.0,78,0.00,,,0.00,weatherlink.com 1.10,2013-03-25 11:46:00,
2013-03-25 06:01:00,8.1,3.0,30.52,WNW,288,1.0,6.0,78,0.00,,,0.00,weatherlink.com 1.10,2013-03-25 12:01:00,
2013-03-25 06:16:00,8.2,2.0,30.52,WNW,302,2.0,5.0,77,0.00,,,0.00,weatherlink.com 1.10,2013-03-25 12:16:00,
2013-03-25 06:31:00,7.9,3.0,30.52,West,273,4.0,7.0,79,0.00,,,0.00,weatherlink.com 1.10,2013-03-25 12:31:00,
2013-03-25 06:46:00,8.0,2.0,30.52,West,259,3.0,11.0,77,0.00,,,0.00,weatherlink.com 1.10,2013-03-25 12:46:00,
2013-03-25 07:01:00,8.1,2.0,30.52,WSW,258,4.0,12.0,75,0.00,,,0.00,weatherlink.com 1.10,2013-03-25 13:01:00,
2013-03-25 07:16:00,8.2,2.0,30.52,West,260,6.0,11.0,74,0.00,,,0.00,weatherlink.com 1.10,2013-03-25 13:16:00,
2013-03-25 07:31:00,9.2,2.0,30.52,West,281,8.0,12.0,72,0.00,,,0.00,weatherlink.com 1.10,2013-03-25 13:31:00,
2013-03-25 07:46:00,10.1,1.0,30.53,WNW,290,6.0,10.0,68,0.00,,,0.00,weatherlink.com 1.10,2013-03-25 13:46:00,
2013-03-25 08:46:00,13.1,1.0,30.53,WNW,298,5.0,16.0,58,0.00,,,0.00,weatherlink.com 1.10,2013-03-25 14:46:00,
2013-03-25 09:01:00,13.5,1.0,30.53,WNW,283,5.0,16.0,57,0.00,,,0.00,weatherlink.com 1.10,2013-03-25 15:01:00,
2013-03-25 09:16:00,14.0,1.0,30.53,NNW,340,5.0,15.0,56,0.00,,,0.00,weatherlink.com 1.10,2013-03-25 15:16:00,
2013-03-25 09:31:00,14.5,1.0,30.53,WSW,252,13.0,17.0,55,0.00,,,0.00,weatherlink.com 1.10,2013-03-25 15:31:00,
2013-03-25 09:46:00,15.1,0.0,30.53,WSW,245,10.0,21.0,51,0.00,,,0.00,weatherlink.com 1.10,2013-03-25 15:46:00,
2013-03-25 10:01:00,15.9,1.0,30.53,West,264,8.0,20.0,52,0.00,,,0.00,weatherlink.com 1.10,2013-03-25 16:01:00,
2013-03-25 10:16:00,16.7,1.0,30.53,West,266,3.0,22.0,50,0.00,,,0.00,weatherlink.com 1.10,2013-03-25 16:16:00,
2013-03-25 10:31:00,17.4,1.0,30.53,WNW,297,6.0,18.0,49,0.00,,,0.00,weatherlink.com 1.10,2013-03-25 16:31:00,
2013-03-25 10:46:00,18.0,2.0,30.54,SSW,212,11.0,16.0,49,0.00,,,0.00,weatherlink.com 1.10,2013-03-25 16:46:00,
2013-03-25 11:01:00,18.9,2.0,30.53,NW,316,6.0,15.0,48,0.00,,,0.00,weatherlink.com 1.10,2013-03-25 17:01:00,
2013-03-25 11:16:00,19.0,3.0,30.52,West,270,12.0,20.0,49,0.00,,,0.00,weatherlink.com 1.10,2013-03-25 17:16:00,
2013-03-25 11:32:00,19.9,2.0,30.52,West,269,10.0,19.0,46,0.00,,,0.00,weatherlink.com 1.10,2013-03-25 17:32:00,
2013-03-25 11:46:00,20.3,3.0,30.52,WNW,288,12.0,19.0,47,0.00,,,0.00,weatherlink.com 1.10,2013-03-25 17:46:00,
2013-03-25 12:01:00,20.4,3.0,30.53,WNW,283,5.0,18.0,48,0.00,,,0.00,weatherlink.com 1.10,2013-03-25 18:01:00,
2013-03-25 12:17:00,20.5,2.0,30.52,West,274,3.0,20.0,44,0.00,,,0.00,weatherlink.com 1.10,2013-03-25 18:17:00,
2013-03-25 12:32:00,21.5,4.0,30.51,West,277,10.0,19.0,46,0.00,,,0.00,weatherlink.com 1.10,2013-03-25 18:32:00,
2013-03-25 12:47:00,21.9,2.0,30.50,West,270,8.0,17.0,43,0.00,,,0.00,weatherlink.com 1.10,2013-03-25 18:47:00,
2013-03-25 13:02:00,22.6,2.0,30.50,WNW,290,7.0,14.0,41,0.00,,,0.00,weatherlink.com 1.10,2013-03-25 19:02:00,
2013-03-25 13:17:00,23.0,2.0,30.50,West,262,7.0,18.0,40,0.00,,,0.00,weatherlink.com 1.10,2013-03-25 19:17:00,
2013-03-25 13:32:00,24.6,3.0,30.50,West,266,10.0,13.0,40,0.00,,,0.00,weatherlink.com 1.10,2013-03-25 19:32:00,
2013-03-25 13:47:00,24.7,3.0,30.49,West,271,9.0,15.0,39,0.00,,,0.00,weatherlink.com 1.10,2013-03-25 19:47:00,
2013-03-25 14:02:00,25.2,3.0,30.48,West,271,7.0,15.0,39,0.00,,,0.00,weatherlink.com 1.10,2013-03-25 20:02:00,
2013-03-25 14:18:00,25.6,0.0,30.47,WSW,249,4.0,13.0,33,0.00,,,0.00,weatherlink.com 1.10,2013-03-25 20:18:00,
2013-03-25 14:32:00,26.3,1.0,30.47,West,270,6.0,15.0,33,0.00,,,0.00,weatherlink.com 1.10,2013-03-25 20:32:00,
2013-03-25 14:47:00,26.5,1.0,30.46,West,276,3.0,13.0,33,0.00,,,0.00,weatherlink.com 1.10,2013-03-25 20:47:00,
2013-03-25 15:02:00,26.6,2.0,30.46,NW,307,8.0,14.0,34,0.00,,,0.00,weatherlink.com 1.10,2013-03-25 21:02:00,
2013-03-25 15:17:00,26.9,1.0,30.46,West,271,10.0,13.0,32,0.00,,,0.00,weatherlink.com 1.10,2013-03-25 21:17:00,
2013-03-25 15:32:00,27.7,-1.0,30.45,WSW,246,1.0,14.0,29,0.00,,,0.00,weatherlink.com 1.10,2013-03-25 21:32:00,
2013-03-25 15:47:00,28.0,-1.0,30.46,West,273,3.0,9.0,29,0.00,,,0.00,weatherlink.com 1.10,2013-03-25 21:47:00,
2013-03-25 16:02:00,27.5,0.0,30.46,West,276,6.0,12.0,30,0.00,,,0.00,weatherlink.com 1.10,2013-03-25 22:02:00,
2013-03-25 16:17:00,27.7,-1.0,30.46,NNW,333,1.0,11.0,29,0.00,,,0.00,weatherlink.com 1.10,2013-03-25 22:17:00,
2013-03-25 16:32:00,26.0,10.0,30.45,East,91,4.0,7.0,52,0.00,,,0.00,weatherlink.com 1.10,2013-03-25 22:32:00,
2013-03-25 16:47:00,25.6,11.0,30.45,East,91,3.0,6.0,54,0.00,,,0.00,weatherlink.com 1.10,2013-03-25 22:47:00,
2013-03-25 17:02:00,25.2,12.0,30.45,ENE,76,6.0,8.0,57,0.00,,,0.00,weatherlink.com 1.10,2013-03-25 23:02:00,
2013-03-25 17:17:00,24.1,12.0,30.45,ESE,120,3.0,8.0,60,0.00,,,0.00,weatherlink.com 1.10,2013-03-25 23:17:00,
2013-03-25 17:32:00,24.4,10.0,30.45,NNE,16,4.0,6.0,55,0.00,,,0.00,weatherlink.com 1.10,2013-03-25 23:32:00,
2013-03-25 17:47:00,26.5,6.0,30.45,SSE,148,1.0,4.0,41,0.00,,,0.00,weatherlink.com 1.10,2013-03-25 23:47:00,
2013-03-25 18:02:00,26.7,-2.0,30.45,WSW,257,6.0,11.0,29,0.00,,,0.00,weatherlink.com 1.10,2013-03-26 00:02:00,
2013-03-25 18:17:00,27.1,8.0,30.45,WNW,290,3.0,8.0,44,0.00,,,0.00,weatherlink.com 1.10,2013-03-26 00:17:00,
2013-03-25 18:32:00,26.1,8.0,30.45,NNE,29,0.0,6.0,47,0.00,,,0.00,weatherlink.com 1.10,2013-03-26 00:32:00,
2013-03-25 18:47:00,23.5,10.0,30.45,East,79,0.0,4.0,56,0.00,,,0.00,weatherlink.com 1.10,2013-03-26 00:47:00,
2013-03-25 19:02:00,21.1,9.0,30.45,East,91,0.0,4.0,60,0.00,,,0.00,weatherlink.com 1.10,2013-03-26 01:02:00,
2013-03-25 19:18:00,18.2,9.0,30.45,ESE,104,0.0,1.0,67,0.00,,,0.00,weatherlink.com 1.10,2013-03-26 01:18:00,
2013-03-25 19:32:00,16.5,9.0,30.45,ESE,103,0.0,1.0,71,0.00,,,0.00,weatherlink.com 1.10,2013-03-26 01:32:00,
2013-03-25 19:47:00,14.3,7.0,30.45,ESE,103,0.0,0.0,74,0.00,,,0.00,weatherlink.com 1.10,2013-03-26 01:47:00,
2013-03-25 20:02:00,12.5,7.0,30.45,ESE,103,0.0,0.0,77,0.00,,,0.00,weatherlink.com 1.10,2013-03-26 02:02:00,
2013-03-25 20:17:00,12.2,6.0,30.46,WSW,252,0.0,3.0,77,0.00,,,0.00,weatherlink.com 1.10,2013-03-26 02:17:00,
2013-03-25 20:32:00,11.6,6.0,30.46,WSW,252,0.0,2.0,79,0.00,,,0.00,weatherlink.com 1.10,2013-03-26 02:32:00,
2013-03-25 20:47:00,10.6,4.0,30.46,WSW,242,1.0,3.0,75,0.00,,,0.00,weatherlink.com 1.10,2013-03-26 02:47:00,
2013-03-25 21:02:00,10.8,3.0,30.46,SSE,150,1.0,3.0,71,0.00,,,0.00,weatherlink.com 1.10,2013-03-26 03:02:00,
2013-03-25 21:17:00,11.0,2.0,30.47,SW,233,0.0,5.0,66,0.00,,,0.00,weatherlink.com 1.10,2013-03-26 03:17:00,
2013-03-25 21:32:00,10.2,1.0,30.47,SSW,204,1.0,3.0,67,0.00,,,0.00,weatherlink.com 1.10,2013-03-26 03:32:00,
2013-03-25 21:47:00,9.8,1.0,30.47,SW,231,0.0,3.0,66,0.00,,,0.00,weatherlink.com 1.10,2013-03-26 03:47:00,
2013-03-25 22:03:00,9.3,0.0,30.47,SSW,193,1.0,3.0,67,0.00,,,0.00,weatherlink.com 1.10,2013-03-26 04:03:00,
2013-03-25 22:18:00,9.6,0.0,30.48,SSE,165,3.0,5.0,65,0.00,,,0.00,weatherlink.com 1.10,2013-03-26 04:18:00,
2013-03-25 22:33:00,9.8,0.0,30.47,SW,226,1.0,6.0,64,0.00,,,0.00,weatherlink.com 1.10,2013-03-26 04:33:00,
2013-03-25 22:48:00,9.4,0.0,30.47,SSW,203,1.0,6.0,65,0.00,,,0.00,weatherlink.com 1.10,2013-03-26 04:48:00,
2013-03-25 23:03:00,9.4,-1.0,30.46,SSW,197,1.0,7.0,64,0.00,,,0.00,weatherlink.com 1.10,2013-03-26 05:03:00,
2013-03-25 23:18:00,8.7,-1.0,30.46,SSW,200,2.0,3.0,65,0.00,,,0.00,weatherlink.com 1.10,2013-03-26 05:18:00,
2013-03-25 23:33:00,7.8,-1.0,30.45,SSW,210,2.0,4.0,67,0.00,,,0.00,weatherlink.com 1.10,2013-03-26 05:33:00,
2013-03-25 23:48:00,6.5,-2.0,30.45,WSW,238,0.0,2.0,69,0.00,,,0.00,weatherlink.com 1.10,2013-03-26 05:48:00,